createdAt,value
2019-04-03T00:03:04.673Z,69.90
2019-04-03T00:07:09.274Z,69.80
2019-04-03T00:11:13.892Z,70.70
2019-04-03T00:15:18.457Z,71.10
2019-04-03T00:19:23.033Z,71.00
2019-04-03T00:23:27.569Z,70.50
2019-04-03T00:27:32.281Z,71.40
2019-04-03T00:31:36.864Z,71.60
2019-04-03T00:35:41.463Z,71.80
2019-04-03T00:39:46.062Z,71.40
2019-04-03T00:43:50.631Z,73.40
2019-04-03T00:47:55.763Z,73.50
2019-04-03T00:52:00.827Z,73.70
2019-04-03T00:56:05.413Z,73.10
2019-04-03T01:00:14.217Z,72.90
2019-04-03T01:04:18.808Z,72.90
2019-04-03T01:08:23.347Z,72.60
2019-04-03T01:12:30.359Z,72.70
2019-04-03T01:16:34.225Z,72.60
2019-04-03T01:20:38.811Z,72.60
2019-04-03T01:24:43.393Z,72.90
2019-04-03T01:28:47.960Z,72.90
2019-04-03T01:32:52.549Z,73.20
2019-04-03T01:36:57.137Z,73.20
2019-04-03T01:41:01.737Z,73.40
2019-04-03T01:45:06.418Z,73.50
2019-04-03T01:49:10.946Z,73.50
2019-04-03T01:53:15.523Z,73.60
2019-04-03T01:57:20.151Z,73.70
2019-04-03T02:01:24.712Z,73.60
2019-04-03T02:05:29.334Z,73.50
2019-04-03T02:09:33.904Z,73.40
2019-04-03T02:13:38.480Z,73.70
2019-04-03T02:17:43.063Z,73.70
2019-04-03T02:21:47.634Z,73.80
2019-04-03T02:25:52.339Z,73.60
2019-04-03T02:29:56.967Z,73.80
2019-04-03T02:34:02.601Z,74.00
2019-04-03T02:38:08.108Z,74.10
2019-04-03T02:42:12.802Z,74.10
2019-04-03T02:46:17.382Z,74.20
2019-04-03T02:50:25.911Z,74.00
2019-04-03T02:54:34.440Z,73.90
2019-04-03T02:58:37.475Z,73.70
2019-04-03T03:02:44.081Z,73.70
2019-04-03T03:06:48.285Z,73.80
2019-04-03T03:10:53.617Z,73.90
2019-04-03T03:14:59.501Z,74.10
2019-04-03T03:19:04.213Z,74.00
2019-04-03T03:23:09.020Z,74.10
2019-04-03T03:27:13.713Z,74.00
2019-04-03T03:31:19.081Z,74.00
2019-04-03T03:35:31.088Z,74.30
2019-04-03T03:39:30.682Z,74.00
2019-04-03T03:43:38.309Z,74.20
2019-04-03T03:47:42.527Z,74.00
2019-04-03T03:51:49.216Z,74.30
2019-04-03T03:55:56.892Z,74.10
2019-04-03T04:00:00.276Z,74.00
2019-04-03T04:04:04.820Z,74.20
2019-04-03T04:08:10.832Z,74.50
2019-04-03T04:12:16.380Z,74.60
2019-04-03T04:16:21.223Z,75.50
2019-04-03T04:20:26.082Z,75.20
2019-04-03T04:24:30.844Z,75.70
2019-04-03T04:28:35.613Z,75.80
2019-04-03T04:32:40.194Z,75.90
2019-04-03T04:36:44.794Z,76.30
2019-04-03T04:40:49.465Z,76.30
2019-04-03T04:44:54.017Z,76.40
2019-04-03T04:48:58.592Z,76.30
2019-04-03T04:53:03.324Z,76.50
2019-04-03T04:57:09.220Z,76.80
2019-04-03T05:01:16.927Z,76.80
2019-04-03T05:05:20.388Z,76.90
2019-04-03T05:09:24.936Z,76.90
2019-04-03T05:13:29.559Z,77.30
2019-04-03T05:17:34.162Z,77.40
2019-04-03T05:21:38.780Z,77.30
2019-04-03T05:25:44.327Z,77.10
2019-04-03T05:29:48.947Z,77.40
2019-04-03T05:33:53.533Z,77.50
2019-04-03T05:37:58.172Z,77.50
2019-04-03T05:42:02.745Z,77.70
2019-04-03T05:46:07.336Z,77.70
2019-04-03T05:50:11.865Z,77.90
2019-04-03T05:54:16.453Z,77.80
2019-04-03T05:58:21.025Z,77.90
2019-04-03T06:02:25.627Z,78.00
2019-04-03T06:06:30.539Z,78.20
2019-04-03T06:10:37.430Z,78.30
2019-04-03T06:14:41.419Z,78.30
2019-04-03T06:18:47.510Z,78.50
2019-04-03T06:22:52.265Z,78.40
2019-04-03T06:26:58.034Z,78.60
2019-04-03T06:31:03.661Z,78.80
2019-04-03T06:35:08.477Z,78.50
2019-04-03T06:39:13.254Z,78.70
2019-04-03T06:43:17.932Z,78.70
2019-04-03T06:47:22.503Z,78.70
2019-04-03T06:51:27.089Z,79.00
2019-04-03T06:55:31.652Z,78.90
2019-04-03T06:59:37.714Z,79.00
2019-04-03T07:03:43.678Z,79.10
2019-04-03T07:07:48.249Z,79.60
2019-04-03T07:11:52.873Z,79.20
2019-04-03T07:15:57.448Z,79.20
2019-04-03T07:20:12.604Z,79.10
2019-04-03T07:24:08.248Z,79.10
2019-04-03T07:28:12.977Z,79.20
2019-04-03T07:32:17.588Z,79.20
2019-04-03T07:36:22.190Z,79.20
2019-04-03T07:40:26.713Z,79.30
2019-04-03T07:44:31.593Z,79.40
2019-04-03T07:48:37.935Z,79.00
2019-04-03T07:52:42.522Z,78.20
2019-04-03T07:56:47.103Z,78.60
2019-04-03T08:00:51.649Z,78.20
2019-04-03T08:04:59.348Z,77.70
2019-04-03T08:09:08.544Z,77.30
2019-04-03T08:13:08.748Z,77.40
2019-04-03T08:17:13.566Z,77.30
2019-04-03T08:21:18.212Z,77.00
2019-04-03T08:25:22.873Z,77.10
2019-04-03T08:29:27.488Z,76.80
2019-04-03T08:33:33.063Z,76.80
2019-04-03T08:37:40.582Z,76.80
2019-04-03T08:41:44.449Z,76.90
2019-04-03T08:45:49.113Z,76.50
2019-04-03T08:49:56.429Z,76.40
2019-04-03T08:53:59.922Z,76.10
2019-04-03T08:58:04.498Z,76.30
2019-04-03T09:02:12.561Z,75.60
2019-04-03T09:06:15.300Z,75.60
2019-04-03T09:10:20.286Z,75.30
2019-04-03T09:14:26.068Z,75.40
2019-04-03T09:18:30.975Z,75.20
2019-04-03T09:22:35.731Z,75.40
2019-04-03T09:26:40.304Z,75.30
2019-04-03T09:30:46.814Z,75.50
2019-04-03T09:34:51.106Z,75.90
2019-04-03T09:38:55.698Z,76.30
2019-04-03T09:43:00.268Z,76.10
2019-04-03T09:47:05.147Z,77.00
2019-04-03T09:51:09.897Z,76.30
2019-04-03T09:55:14.677Z,77.00
2019-04-03T09:59:19.588Z,76.80
2019-04-03T10:03:24.211Z,76.80
2019-04-03T10:07:31.188Z,76.50
2019-04-03T10:11:35.018Z,76.50
2019-04-03T10:15:39.616Z,76.50
2019-04-03T10:19:45.595Z,76.30
2019-04-03T10:23:50.436Z,76.30
2019-04-03T10:27:55.004Z,76.20
2019-04-03T10:31:59.551Z,75.80
2019-04-03T10:36:04.339Z,76.30
2019-04-03T10:40:10.266Z,76.30
2019-04-03T10:44:15.002Z,76.60
2019-04-03T10:48:19.636Z,76.40
2019-04-03T10:52:24.204Z,76.70
2019-04-03T10:56:30.769Z,75.90
2019-04-03T11:00:34.991Z,76.90
2019-04-03T11:04:39.603Z,77.00
2019-04-03T11:08:44.418Z,77.50
2019-04-03T11:12:49.037Z,76.90
2019-04-03T11:16:53.730Z,76.90
2019-04-03T11:20:58.380Z,76.10
2019-04-03T11:25:03.051Z,76.70
2019-04-03T11:29:10.002Z,77.00
2019-04-03T11:33:14.082Z,77.10
2019-04-03T11:37:18.683Z,76.90
2019-04-03T11:41:24.307Z,76.90
2019-04-03T11:45:29.330Z,76.90
2019-04-03T11:49:34.342Z,77.10
2019-04-03T11:53:39.068Z,76.70
2019-04-03T11:57:43.676Z,76.70
2019-04-03T12:01:48.571Z,76.20
2019-04-03T12:05:53.597Z,77.40
2019-04-03T12:09:58.392Z,77.20
2019-04-03T12:14:03.001Z,77.20
2019-04-03T12:18:07.569Z,76.90
2019-04-03T12:22:12.170Z,76.60
2019-04-03T12:26:19.686Z,76.30
2019-04-03T12:30:23.057Z,76.80
2019-04-03T12:34:27.666Z,76.20
2019-04-03T12:38:32.228Z,76.70
2019-04-03T12:42:36.802Z,76.70
2019-04-03T12:46:41.815Z,76.50
2019-04-03T12:50:46.872Z,75.70
2019-04-03T12:54:53.774Z,76.40
2019-04-03T12:58:58.118Z,76.80
2019-04-03T13:03:02.662Z,76.60
2019-04-03T13:07:07.414Z,77.20
2019-04-03T13:11:12.099Z,77.10
2019-04-03T13:15:17.148Z,77.40
2019-04-03T13:19:23.747Z,78.20
2019-04-03T13:23:31.289Z,78.90
2019-04-03T13:27:36.158Z,79.10
2019-04-03T13:31:40.795Z,81.60
2019-04-03T13:35:47.206Z,81.60
2019-04-03T13:39:52.009Z,81.50
2019-04-03T13:43:57.029Z,81.00
2019-04-03T13:48:01.661Z,80.60
2019-04-03T13:52:09.037Z,80.80
2019-04-03T13:56:13.326Z,80.00
2019-04-03T14:00:22.713Z,79.20
2019-04-03T14:04:24.905Z,77.90
2019-04-03T14:08:29.858Z,78.40
2019-04-03T14:12:36.605Z,78.40
2019-04-03T14:16:40.773Z,78.20
2019-04-03T14:20:45.759Z,78.70
2019-04-03T14:24:52.586Z,77.70
2019-04-03T14:28:56.774Z,77.80
2019-04-03T14:33:01.385Z,77.80
2019-04-03T14:37:06.270Z,78.10
2019-04-03T14:41:10.906Z,78.00
2019-04-03T14:45:15.938Z,77.90
2019-04-03T14:49:21.075Z,77.30
2019-04-03T14:53:25.871Z,77.10
2019-04-03T14:57:30.436Z,77.40
2019-04-03T15:01:35.166Z,77.40
2019-04-03T15:05:44.214Z,77.40
2019-04-03T15:09:46.913Z,77.70
2019-04-03T15:13:51.595Z,77.80
2019-04-03T15:17:56.285Z,77.60
2019-04-03T15:22:02.245Z,78.00
2019-04-03T15:26:07.933Z,78.00
2019-04-03T15:30:13.416Z,77.20
2019-04-03T15:34:18.453Z,77.30
2019-04-03T15:38:23.196Z,77.60
2019-04-03T15:42:28.208Z,77.00
2019-04-03T15:46:34.258Z,76.90
2019-04-03T15:50:39.161Z,77.00
2019-04-03T15:54:44.145Z,76.80
2019-04-03T15:58:51.995Z,77.10
2019-04-03T16:02:56.920Z,77.10
2019-04-03T16:07:02.062Z,77.20
2019-04-03T16:11:07.102Z,77.10
2019-04-03T16:15:12.104Z,77.10
2019-04-03T16:19:16.652Z,77.30
2019-04-03T16:23:22.550Z,77.20
2019-04-03T16:27:29.143Z,76.90
2019-04-03T16:31:33.793Z,77.00
2019-04-03T16:35:38.382Z,77.10
2019-04-03T16:39:43.466Z,76.90
2019-04-03T16:43:48.234Z,77.10
2019-04-03T16:47:52.882Z,77.10
2019-04-03T16:51:57.452Z,77.30
2019-04-03T16:56:02.494Z,77.30
2019-04-03T17:00:10.347Z,77.40
2019-04-03T17:04:24.981Z,76.50
2019-04-03T17:08:21.888Z,77.20
2019-04-03T17:12:26.529Z,77.10
2019-04-03T17:16:31.125Z,77.20
2019-04-03T17:20:35.681Z,77.30
2019-04-03T17:24:44.041Z,77.40
2019-04-03T17:28:46.670Z,77.10
2019-04-03T17:32:51.674Z,77.30
2019-04-03T17:36:56.779Z,77.30
2019-04-03T17:41:01.402Z,77.20
2019-04-03T17:45:06.917Z,77.30
2019-04-03T17:49:11.509Z,77.50
2019-04-03T17:53:16.110Z,77.60
2019-04-03T17:57:20.725Z,77.80
2019-04-03T18:01:25.293Z,77.90
2019-04-03T18:05:29.909Z,78.00
2019-04-03T18:09:36.219Z,78.00
2019-04-03T18:13:41.197Z,78.10
2019-04-03T18:17:45.777Z,78.10
2019-04-03T18:21:50.316Z,78.10
2019-04-03T18:25:54.897Z,78.20
2019-04-03T18:29:59.510Z,78.10
2019-04-03T18:34:04.124Z,78.30
2019-04-03T18:38:08.712Z,78.30
2019-04-03T18:42:13.262Z,78.60
2019-04-03T18:46:31.131Z,79.60
2019-04-03T18:50:24.216Z,78.60
2019-04-03T18:54:28.953Z,78.80
2019-04-03T18:58:33.531Z,78.50
2019-04-03T19:02:38.282Z,78.50
2019-04-03T19:06:44.509Z,78.70
2019-04-03T19:11:01.384Z,78.60
2019-04-03T19:14:55.573Z,78.70
2019-04-03T19:19:07.782Z,78.90
2019-04-03T19:23:07.098Z,78.90
2019-04-03T19:27:12.272Z,79.10
2019-04-03T19:31:15.782Z,78.70
2019-04-03T19:35:22.458Z,78.10
2019-04-03T19:39:25.958Z,78.40
2019-04-03T19:43:29.427Z,79.20
2019-04-03T19:47:33.359Z,79.00
2019-04-03T19:51:38.048Z,79.10
2019-04-03T19:55:42.735Z,81.20
2019-04-03T19:59:47.361Z,80.90
2019-04-03T20:03:52.068Z,80.80
2019-04-03T20:07:58.553Z,80.60
2019-04-03T20:12:03.053Z,80.70
2019-04-03T20:16:07.737Z,80.80
2019-04-03T20:20:12.479Z,80.90
2019-04-03T20:24:17.089Z,81.10
2019-04-03T20:28:24.077Z,81.00
2019-04-03T20:32:28.057Z,81.30
2019-04-03T20:36:32.688Z,81.80
2019-04-03T20:40:39.727Z,82.20
2019-04-03T20:44:43.473Z,82.00
2019-04-03T20:48:48.093Z,81.90
2019-04-03T20:52:52.669Z,82.60
2019-04-03T20:56:58.474Z,80.80
2019-04-03T21:01:06.935Z,80.70
2019-04-03T21:05:09.923Z,80.20
2019-04-03T21:09:14.545Z,80.20
2019-04-03T21:13:19.230Z,80.80
2019-04-03T21:17:24.117Z,80.40
2019-04-03T21:21:29.737Z,79.90
2019-04-03T21:25:36.090Z,80.00
2019-04-03T21:29:41.273Z,80.00
2019-04-03T21:33:45.894Z,80.00
2019-04-03T21:37:50.517Z,80.30
2019-04-03T21:41:55.902Z,80.60
2019-04-03T21:46:01.287Z,80.60
2019-04-03T21:50:07.273Z,80.60
2019-04-03T21:54:11.855Z,80.60
2019-04-03T21:58:16.433Z,80.80
2019-04-03T22:02:20.988Z,80.70
2019-04-03T22:06:27.525Z,80.80
2019-04-03T22:10:33.001Z,80.70
2019-04-03T22:14:38.069Z,80.70
2019-04-03T22:18:43.062Z,80.80
2019-04-03T22:22:47.607Z,80.90
2019-04-03T22:26:52.192Z,80.90
2019-04-03T22:30:56.792Z,80.80
2019-04-03T22:35:01.628Z,80.60
2019-04-03T22:39:08.046Z,80.70
2019-04-03T22:43:15.362Z,81.40
2019-04-03T22:47:19.656Z,80.80
2019-04-03T22:51:24.223Z,80.80
2019-04-03T22:55:28.826Z,80.80
2019-04-03T22:59:33.417Z,80.80
2019-04-03T23:03:37.916Z,81.10
2019-04-03T23:07:42.551Z,81.30
2019-04-03T23:11:47.172Z,81.40
2019-04-03T23:15:51.868Z,81.40
2019-04-03T23:19:56.441Z,82.20
2019-04-03T23:24:01.093Z,81.60
2019-04-03T23:28:05.737Z,81.70
2019-04-03T23:32:10.373Z,81.50
2019-04-03T23:36:14.973Z,80.90
2019-04-03T23:40:19.510Z,81.60
2019-04-03T23:44:24.980Z,81.70
2019-04-03T23:48:29.570Z,82.50
2019-04-03T23:52:34.177Z,81.90
2019-04-03T23:56:38.925Z,81.90
